Tipton, TN (38071)

4:27 AM CDT on July 06, 2015 (GMT -0500)
KTNMUNFO2 | | Change Station
CLOSE
Current Station
Personal Weather Station
Location: Munford, TN
Elevation: 394 ft
Nearby Weather Stations
Active Advisory: Flood Warning

Elev 394 ft 35.42 °N, 89.83 °W | Updated 5 minutes ago

Clear
Clear
68.0 °F
Feels Like 68.0 °F
N
0.0
Wind Variable Wind from SSW

Today
High -- | Low -- °F
--% Chance of Precip.
Yesterday
High -- | Low -- °F
Precip. -- in
5:50 AM 8:17 PM
Waning Gibbous, 77% visible
Pressure 30.05 in
Visibility 10.0 miles
Clouds Clear
Dew Point 68 °F
Humidity 99%
Rainfall 0.00 in
Snow Depth Not available.
UV 0 out of 12
Pollen 2.60 out of 12
Air Quality Not available.
Flu Activity Not available.
METAR KNQA 060915Z AUTO 00000KT 10SM CLR 21/21 A3005 RMK

More Conditions Fewer Conditions

Pressure 30.05 in
Visibility 10.0 miles
Clouds Clear
Dew Point 68 °F
Humidity 99%
Rainfall 0.00 in
Snow Depth Not available.
UV 0 out of 12
Pollen 2.60 out of 12
Air Quality Not available.
Flu Activity Not available.
METAR KNQA 060915Z AUTO 00000KT 10SM CLR 21/21 A3005 RMK

More Conditions Fewer Conditions

10-Day Weather Forecast

×

Almanac

Astronomy

Jul. 06, 2015 Rise Set
Actual Time
Civil Twilight
Nautical Twilight
Astronomical Twilight
Moon
Length of Visible Light
Length of Day
Tomorrow will be .
, % of the Moon is Illuminated

Today's Extremes

State Highs State Lows

Community

WunderPhotos

Upload Photos

1,835,520 photos uploaded!

WunderBlogs® & News

Nearby

Air Quality

  Air Quality AQ Index Pollutant
Not available.

Snow Depth

Station Depth Elevation

Earthquake Activity

City Distance Mag. Time & Date
Minimum magnitude displayed is 2.5.

Coastal Water Temperatures

Place Temperature

Stations

Nearby Weather Stations

Station Location Temp. Windchill Dew Point Humidity Wind Precip. Elev Updated Type
                   
Flood Warning
Statement as of 9:11 PM CDT on July 05, 2015

The Flood Warning continues for
the Mississippi River at Osceola
* until further notice.
* At 09 PM Sunday the stage was 30.7 feet.
* Minor flooding is occurring and moderate flooding is forecast.
* Flood stage is 28.0 feet.
* The river rose above flood stage and will continue rising to near
32.5 feet by Friday July 10. Additional rises may be possible
thereafter.
* At 33.0 feet... in Tennessee, settlement on Crawford Road east north
of Fort Pillow is beginning to flood. Jack Rabbit Road is flooded.
West leg of Crutcher Lake Road is flooding stopping evacuations.
Most homesteads along cold Creek Road are flooded. In Arkansas,
Highway 120 is covering up.


Lat... Lon 3582 8996 3582 8956 3560 8979 3539 8995
      3539 9025